Time;durP1;ratioP1;P1;durP2;ratioP2;P2;SDS_P1;SDS_P2;PMS_P1;PMS_P2;Temp;Humidity;BMP_temperature;BMP_pressure;BME280_temperature;BME280_humidity;BME280_pressure;Samples;Min_cycle;Max_cycle;Signal;HPM_P1;HPM_P2
2022/04/06 00:00:13;;;;;;;18.88;8.55;;;9.80;75.90;;;;;;4923277;29;20051;-76
2022/04/06 00:02:40;;;;;;;21.15;8.15;;;9.80;75.90;;;;;;4939694;29;20058;-76
2022/04/06 00:05:10;;;;;;;18.48;9.07;;;10.20;76.10;;;;;;4891074;29;20048;-77
2022/04/06 00:07:44;;;;;;;17.77;8.35;;;9.80;75.90;;;;;;4936409;29;20048;-77
2022/04/06 00:10:12;;;;;;;19.75;8.00;;;9.80;75.80;;;;;;4936472;29;20036;-77
2022/04/06 00:12:39;;;;;;;18.33;7.97;;;9.90;75.90;;;;;;4920432;29;20067;-78
2022/04/06 00:15:07;;;;;;;15.93;7.72;;;10.20;76.10;;;;;;4924238;29;20051;-77
2022/04/06 00:17:33;;;;;;;15.90;7.72;;;9.90;75.90;;;;;;4937356;29;20443;-77
2022/04/06 00:19:59;;;;;;;16.42;7.88;;;10.20;76.10;;;;;;4937478;29;20127;-77
2022/04/06 00:22:25;;;;;;;19.17;8.00;;;10.20;76.10;;;;;;4925564;29;20780;-78
2022/04/06 00:24:51;;;;;;;18.02;7.85;;;10.10;76.00;;;;;;4935060;29;20123;-77
2022/04/06 00:27:18;;;;;;;20.75;9.02;;;9.40;75.50;;;;;;4904716;29;20040;-76
2022/04/06 00:29:44;;;;;;;18.17;8.27;;;10.10;75.90;;;;;;4919698;29;20048;-76
2022/04/06 00:32:10;;;;;;;14.07;7.88;;;9.80;75.70;;;;;;4903609;29;20370;-76
2022/04/06 00:37:20;;;;;;;15.52;8.07;;;9.90;75.80;;;;;;4921605;29;20058;-77
2022/04/06 00:39:46;;;;;;;15.10;8.40;;;9.80;75.80;;;;;;4918308;29;20396;-76
2022/04/06 00:42:11;;;;;;;21.48;9.77;;;9.80;75.80;;;;;;4921184;29;20043;-76
2022/04/06 00:44:38;;;;;;;21.33;8.98;;;9.80;75.80;;;;;;4923191;29;20043;-75
2022/04/06 00:47:06;;;;;;;17.95;9.20;;;9.80;75.90;;;;;;4926440;29;20074;-76
2022/04/06 00:49:32;;;;;;;23.08;9.90;;;9.80;75.90;;;;;;4938652;29;20049;-76
2022/04/06 00:52:01;;;;;;;19.35;8.32;;;9.80;75.90;;;;;;4935933;29;20050;-77
2022/04/06 00:54:29;;;;;;;18.60;9.40;;;10.10;76.10;;;;;;4937052;29;20059;-77
2022/04/06 00:56:54;;;;;;;19.65;9.80;;;10.00;76.00;;;;;;4925749;29;20036;-78
2022/04/06 00:59:20;;;;;;;16.90;9.55;;;9.70;75.80;;;;;;4918076;29;20511;-77
2022/04/06 01:01:48;;;;;;;20.15;8.45;;;10.00;76.00;;;;;;4903086;29;20055;-77
2022/04/06 01:04:15;;;;;;;20.55;9.77;;;9.80;75.90;;;;;;4934071;29;20130;-77
2022/04/06 01:06:41;;;;;;;18.10;8.35;;;9.80;75.80;;;;;;4927014;29;20063;-77
2022/04/06 01:09:09;;;;;;;15.05;8.45;;;10.20;76.10;;;;;;4920423;29;20052;-77
2022/04/06 01:11:36;;;;;;;21.30;9.15;;;9.80;75.80;;;;;;4923287;29;20579;-76
2022/04/06 01:14:02;;;;;;;17.40;9.10;;;9.90;75.80;;;;;;4936317;29;20377;-78
2022/04/06 01:16:29;;;;;;;17.77;9.00;;;9.80;75.70;;;;;;4929523;29;20051;-77
2022/04/06 01:18:55;;;;;;;16.42;8.07;;;9.80;75.70;;;;;;4923598;29;20059;-78
2022/04/06 01:21:21;;;;;;;20.75;7.85;;;10.10;75.80;;;;;;4922719;29;20405;-77
2022/04/06 01:23:47;;;;;;;17.88;7.78;;;9.80;75.60;;;;;;4937677;29;20040;-78
2022/04/06 01:26:13;;;;;;;14.40;7.40;;;9.70;75.60;;;;;;4926364;29;20039;-77
2022/04/06 01:28:40;;;;;;;17.27;7.15;;;9.70;76.00;;;;;;4934278;29;20130;-78
2022/04/06 01:31:06;;;;;;;13.45;7.10;;;10.10;75.70;;;;;;4902573;29;20039;-78
2022/04/06 01:33:33;;;;;;;13.38;6.85;;;9.80;75.50;;;;;;4916711;29;20111;-78
2022/04/06 01:36:00;;;;;;;16.15;7.07;;;9.80;75.90;;;;;;4933127;29;20131;-77
2022/04/06 01:38:26;;;;;;;13.57;6.35;;;9.80;75.40;;;;;;4919087;29;20043;-77
2022/04/06 01:40:52;;;;;;;15.32;6.18;;;9.80;75.30;;;;;;4926991;29;20036;-77
2022/04/06 01:43:18;;;;;;;18.00;5.63;;;10.20;75.60;;;;;;4929893;29;20051;-77
2022/04/06 01:45:44;;;;;;;14.57;6.20;;;9.80;75.30;;;;;;4936089;29;20043;-77
2022/04/06 01:48:10;;;;;;;13.10;6.57;;;10.10;75.50;;;;;;4920300;29;20503;-77
2022/04/06 01:53:20;;;;;;;14.38;6.15;;;9.70;75.20;;;;;;4923491;29;20062;-77
2022/04/06 01:55:46;;;;;;;15.38;6.03;;;9.70;75.20;;;;;;4919710;29;20040;-77
2022/04/06 01:58:12;;;;;;;15.80;6.03;;;9.80;75.20;;;;;;4930633;29;20522;-76
2022/04/06 02:00:39;;;;;;;13.15;7.00;;;10.00;75.30;;;;;;4918387;29;20122;-78
2022/04/06 02:03:05;;;;;;;10.63;5.93;;;9.70;75.10;;;;;;4922301;29;20504;-77
2022/04/06 02:05:33;;;;;;;12.95;5.70;;;9.70;75.00;;;;;;4935071;29;20514;-78
2022/04/06 02:07:59;;;;;;;14.88;6.10;;;10.30;75.30;;;;;;4927952;29;20079;-78
2022/04/06 02:10:25;;;;;;;16.13;7.93;;;9.70;74.90;;;;;;4943759;29;20114;-77
2022/04/06 02:12:57;;;;;;;10.32;4.93;;;9.70;74.80;;;;;;4926074;29;20456;-76
2022/04/06 02:15:24;;;;;;;11.77;5.70;;;9.70;74.80;;;;;;4929772;29;20060;-76
2022/04/06 02:17:50;;;;;;;12.20;5.18;;;9.70;74.80;;;;;;4926179;29;20400;-76
2022/04/06 02:20:17;;;;;;;11.52;4.47;;;10.00;74.90;;;;;;4916289;29;20519;-76
2022/04/06 02:22:43;;;;;;;14.35;6.00;;;10.20;75.00;;;;;;4920053;29;20055;-76
2022/04/06 02:25:10;;;;;;;13.68;5.85;;;9.70;74.60;;;;;;4918992;29;20046;-76
2022/04/06 02:27:50;;;;;;;12.00;5.00;;;9.70;74.60;;;;;;4918924;29;20128;-76
2022/04/06 02:30:17;;;;;;;17.85;5.40;;;10.00;74.70;;;;;;4916577;29;20044;-77
2022/04/06 02:32:43;;;;;;;12.60;4.95;;;9.70;74.60;;;;;;4922245;29;20131;-77
2022/04/06 02:35:09;;;;;;;11.60;4.40;;;9.70;74.50;;;;;;4918780;29;20051;-77
2022/04/06 02:37:35;;;;;;;8.18;4.38;;;10.20;74.80;;;;;;4924178;29;20048;-77
2022/04/06 02:40:00;;;;;;;14.32;5.35;;;9.70;74.50;;;;;;4917092;29;20071;-76
2022/04/06 02:42:26;;;;;;;18.15;6.38;;;9.70;74.50;;;;;;4934116;29;20396;-77
2022/04/06 02:44:52;;;;;;;15.93;5.50;;;10.20;74.70;;;;;;4934653;29;20099;-77
2022/04/06 02:47:18;;;;;;;15.73;5.93;;;10.00;74.60;;;;;;4933544;29;20050;-76
2022/04/06 02:49:43;;;;;;;17.40;5.88;;;9.70;74.40;;;;;;4934646;29;20492;-76
2022/04/06 02:52:09;;;;;;;15.32;5.60;;;10.00;74.70;;;;;;4919004;29;20040;-76
2022/04/06 02:54:35;;;;;;;14.63;6.07;;;9.80;74.50;;;;;;4930964;29;20136;-77
2022/04/06 02:57:00;;;;;;;15.45;6.85;;;9.70;74.50;;;;;;4917056;29;20050;-76
2022/04/06 02:59:26;;;;;;;17.48;6.07;;;9.90;74.70;;;;;;4920134;29;20052;-76
2022/04/06 03:01:52;;;;;;;21.23;7.95;;;9.90;74.70;;;;;;4936170;29;20115;-76
2022/04/06 03:04:17;;;;;;;14.57;6.78;;;9.70;74.60;;;;;;4923168;29;20048;-76
2022/04/06 03:06:43;;;;;;;19.17;7.07;;;9.80;74.70;;;;;;4917605;29;20492;-75
2022/04/06 03:09:09;;;;;;;16.65;6.55;;;10.20;75.00;;;;;;4921416;29;20056;-76
2022/04/06 03:11:35;;;;;;;21.58;7.25;;;9.70;74.60;;;;;;4917246;29;20055;-76
2022/04/06 03:14:01;;;;;;;20.27;7.82;;;10.20;75.00;;;;;;4922762;29;20058;-77
2022/04/06 03:16:27;;;;;;;23.33;7.60;;;9.70;74.70;;;;;;4919068;29;20052;-76
2022/04/06 03:18:53;;;;;;;20.95;8.27;;;9.70;74.70;;;;;;4910041;29;20123;-77
2022/04/06 03:21:18;;;;;;;17.27;6.97;;;10.00;74.90;;;;;;4935006;29;20488;-76
2022/04/06 03:23:44;;;;;;;16.67;7.35;;;9.80;74.70;;;;;;4927225;29;20046;-76
2022/04/06 03:26:11;;;;;;;19.88;7.70;;;9.80;74.80;;;;;;4938027;29;20476;-76
2022/04/06 03:28:38;;;;;;;17.95;7.28;;;9.70;74.80;;;;;;4915372;29;20052;-75
2022/04/06 03:31:05;;;;;;;25.85;8.57;;;10.00;75.00;;;;;;4914837;29;20051;-76
2022/04/06 03:33:31;;;;;;;22.75;8.23;;;9.90;75.00;;;;;;4926622;29;20198;-75
2022/04/06 03:35:57;;;;;;;22.33;8.80;;;9.80;74.90;;;;;;4940430;29;20036;-76
2022/04/06 03:38:23;;;;;;;20.40;8.40;;;9.70;74.90;;;;;;4917521;29;20626;-76
2022/04/06 03:40:49;;;;;;;22.27;8.90;;;10.20;75.20;;;;;;4930297;29;20040;-76
2022/04/06 03:43:14;;;;;;;20.55;8.73;;;9.70;74.90;;;;;;4938230;29;20123;-76
2022/04/06 03:45:40;;;;;;;23.77;8.75;;;9.70;74.90;;;;;;4936683;29;20082;-77
2022/04/06 03:48:06;;;;;;;21.33;9.48;;;9.70;75.00;;;;;;4920618;29;20055;-77
2022/04/06 03:50:32;;;;;;;19.65;8.82;;;9.70;75.00;;;;;;4936409;29;20027;-77
2022/04/06 03:52:58;;;;;;;20.10;8.82;;;9.80;75.10;;;;;;4939104;29;20047;-75
2022/04/06 03:55:23;;;;;;;20.60;8.63;;;10.10;75.20;;;;;;4931500;29;20085;-77
2022/04/06 03:57:50;;;;;;;22.45;9.13;;;10.10;75.30;;;;;;4935855;29;20059;-76
2022/04/06 04:00:16;;;;;;;23.17;8.93;;;10.20;75.30;;;;;;4928808;29;20044;-77
2022/04/06 04:02:41;;;;;;;19.73;7.50;;;9.70;75.00;;;;;;4933826;29;20499;-77
2022/04/06 04:05:08;;;;;;;18.48;8.40;;;10.00;75.10;;;;;;4936610;29;20039;-77
2022/04/06 04:07:37;;;;;;;16.88;7.13;;;9.70;74.90;;;;;;4937760;29;20083;-77
2022/04/06 04:10:08;;;;;;;15.07;6.65;;;9.70;74.90;;;;;;4932027;29;20050;-77
2022/04/06 04:12:34;;;;;;;15.13;6.80;;;9.70;74.80;;;;;;4903971;29;20050;-77
2022/04/06 04:15:00;;;;;;;19.98;6.57;;;9.90;74.80;;;;;;4914095;29;20476;-78
2022/04/06 04:17:26;;;;;;;12.82;5.72;;;9.70;74.60;;;;;;4934831;29;20052;-78
2022/04/06 04:19:51;;;;;;;19.85;5.55;;;9.70;74.50;;;;;;4928073;29;20055;-77
2022/04/06 04:22:17;;;;;;;18.38;4.70;;;10.20;74.80;;;;;;4937515;29;20059;-77
2022/04/06 04:24:43;;;;;;;12.88;4.38;;;9.70;74.40;;;;;;4934442;29;20123;-78
2022/04/06 04:27:08;;;;;;;11.45;4.50;;;9.70;74.20;;;;;;4918940;29;20388;-77
2022/04/06 04:29:34;;;;;;;11.95;3.88;;;10.20;74.40;;;;;;4925677;29;20523;-77
2022/04/06 04:32:00;;;;;;;13.20;4.30;;;9.70;74.10;;;;;;4921563;29;20119;-78
2022/04/06 04:34:26;;;;;;;15.07;4.43;;;9.70;74.00;;;;;;4926547;29;20205;-76
2022/04/06 04:36:53;;;;;;;11.88;4.18;;;9.70;73.90;;;;;;4922752;29;20492;-76
2022/04/06 04:39:18;;;;;;;11.80;3.30;;;9.90;74.00;;;;;;4919927;29;20531;-77
2022/04/06 04:41:45;;;;;;;11.68;3.40;;;9.70;73.80;;;;;;4927816;29;20043;-76
2022/04/06 04:44:11;;;;;;;16.02;3.40;;;10.20;74.10;;;;;;4935252;29;20058;-76
2022/04/06 04:46:37;;;;;;;13.13;3.95;;;9.70;73.70;;;;;;4923396;29;20408;-76
2022/04/06 04:49:03;;;;;;;15.23;3.95;;;9.70;73.60;;;;;;4931720;29;20044;-76
2022/04/06 04:51:29;;;;;;;12.63;4.70;;;9.70;73.50;;;;;;4924860;29;20453;-78
2022/04/06 04:53:57;;;;;;;9.60;3.63;;;9.70;73.50;;;;;;4917956;29;20040;-76
2022/04/06 04:56:24;;;;;;;10.73;3.40;;;10.10;73.70;;;;;;4924458;29;20385;-76
2022/04/06 04:58:51;;;;;;;10.65;3.83;;;9.70;73.40;;;;;;4922985;29;20087;-76
2022/04/06 05:01:17;;;;;;;13.52;3.55;;;9.70;73.40;;;;;;4930318;29;20058;-76
2022/04/06 05:03:43;;;;;;;15.80;3.90;;;9.70;73.30;;;;;;4938426;29;20053;-77
2022/04/06 05:06:09;;;;;;;9.90;2.88;;;9.90;73.20;;;;;;4921874;29;20417;-76
2022/04/06 05:08:35;;;;;;;12.57;3.78;;;10.10;73.30;;;;;;4887428;29;20591;-76
2022/04/06 05:11:00;;;;;;;8.98;2.50;;;9.70;73.10;;;;;;4919399;29;20075;-76
2022/04/06 05:13:26;;;;;;;14.10;3.25;;;9.80;73.10;;;;;;4901912;29;20067;-76
2022/04/06 05:15:52;;;;;;;8.75;2.70;;;10.00;73.60;;;;;;4921072;29;20044;-76
2022/04/06 05:18:17;;;;;;;10.52;3.53;;;9.70;73.00;;;;;;4920690;29;20437;-76
2022/04/06 05:20:43;;;;;;;11.07;2.50;;;10.10;73.30;;;;;;4919190;29;20071;-76
2022/04/06 05:23:09;;;;;;;11.30;2.70;;;9.60;72.90;;;;;;4919663;29;20056;-76
2022/04/06 05:25:35;;;;;;;11.95;3.78;;;9.60;72.90;;;;;;4937631;29;20051;-76
2022/04/06 05:28:01;;;;;;;10.90;2.70;;;9.60;73.00;;;;;;4935827;29;20403;-76
2022/04/06 05:30:27;;;;;;;8.10;2.58;;;9.60;73.00;;;;;;4934750;29;20059;-77
2022/04/06 05:32:55;;;;;;;10.30;2.75;;;9.80;73.10;;;;;;4919287;29;20054;-77
2022/04/06 05:35:24;;;;;;;13.52;3.72;;;9.60;73.00;;;;;;4936521;29;20052;-77
2022/04/06 05:37:54;;;;;;;10.95;2.88;;;9.60;73.10;;;;;;4930612;29;20058;-75
2022/04/06 05:40:20;;;;;;;7.88;2.97;;;9.70;73.20;;;;;;4916886;29;20099;-76
2022/04/06 05:42:47;;;;;;;10.32;2.92;;;9.60;73.20;;;;;;4935221;29;20082;-77
2022/04/06 05:45:13;;;;;;;6.88;2.72;;;9.60;73.20;;;;;;4932183;29;20055;-77
2022/04/06 05:47:39;;;;;;;9.00;2.30;;;9.60;73.30;;;;;;4924291;29;20110;-77
2022/04/06 05:50:07;;;;;;;13.13;3.05;;;10.10;73.70;;;;;;4925323;29;20487;-77
2022/04/06 05:52:33;;;;;;;9.90;3.00;;;9.60;73.60;;;;;;4937169;29;20500;-75
2022/04/06 05:54:59;;;;;;;6.35;2.63;;;9.70;73.70;;;;;;4907149;29;20055;-75
2022/04/06 05:57:25;;;;;;;11.50;2.80;;;9.60;73.70;;;;;;4931195;29;20107;-76
2022/04/06 05:59:51;;;;;;;8.88;2.35;;;9.60;73.70;;;;;;4916173;29;20052;-75
2022/04/06 06:02:18;;;;;;;6.03;2.17;;;9.50;73.70;;;;;;4927549;29;20036;-76
2022/04/06 06:04:44;;;;;;;8.15;2.05;;;9.60;73.70;;;;;;4926457;29;20527;-75
2022/04/06 06:07:11;;;;;;;7.85;2.30;;;9.90;73.90;;;;;;4929747;29;20079;-75
2022/04/06 06:09:37;;;;;;;9.20;2.05;;;9.50;73.70;;;;;;4912253;29;20050;-76
2022/04/06 06:12:03;;;;;;;7.93;2.28;;;9.70;74.00;;;;;;4936486;29;20051;-77
2022/04/06 06:14:30;;;;;;;6.78;2.05;;;9.50;73.90;;;;;;4928216;29;20056;-78
2022/04/06 06:16:58;;;;;;;10.95;2.20;;;9.50;74.00;;;;;;4918047;29;20044;-76
2022/04/06 06:19:24;;;;;;;11.98;2.97;;;9.50;74.00;;;;;;4904758;29;20107;-78
2022/04/06 06:21:50;;;;;;;9.68;2.20;;;9.50;74.20;;;;;;4932073;29;20055;-75
2022/04/06 06:24:15;;;;;;;6.13;1.80;;;9.50;74.20;;;;;;4932096;29;20051;-75
2022/04/06 06:26:44;;;;;;;7.63;2.58;;;9.50;74.20;;;;;;4917980;29;20123;-74
2022/04/06 06:29:11;;;;;;;8.20;2.67;;;9.50;74.30;;;;;;4917741;29;20063;-75
2022/04/06 06:31:37;;;;;;;7.70;2.47;;;9.50;74.40;;;;;;4916317;29;20063;-75
2022/04/06 06:34:03;;;;;;;10.90;2.55;;;9.90;74.60;;;;;;4901410;29;20048;-75
2022/04/06 06:36:29;;;;;;;12.85;2.80;;;9.90;74.50;;;;;;4935545;29;20556;-76
2022/04/06 06:38:55;;;;;;;7.90;2.38;;;9.50;74.30;;;;;;4935496;29;20079;-77
2022/04/06 06:41:22;;;;;;;7.18;2.45;;;9.50;74.30;;;;;;4934957;29;20484;-77
2022/04/06 06:43:49;;;;;;;6.78;2.72;;;9.50;74.30;;;;;;4934834;29;20043;-76
2022/04/06 06:46:19;;;;;;;10.45;2.65;;;9.60;74.30;;;;;;4935368;29;20047;-76
2022/04/06 06:48:46;;;;;;;12.75;3.05;;;9.50;74.20;;;;;;4920792;29;20044;-76
2022/04/06 06:51:13;;;;;;;9.10;2.58;;;9.50;74.20;;;;;;4930863;29;20051;-76
2022/04/06 06:53:39;;;;;;;10.85;2.78;;;9.50;74.20;;;;;;4936124;29;20055;-76
2022/04/06 06:56:05;;;;;;;10.32;2.30;;;9.50;74.20;;;;;;4920671;29;20100;-77
2022/04/06 06:58:31;;;;;;;12.57;3.67;;;9.50;74.20;;;;;;4916734;29;20445;-77
2022/04/06 07:00:57;;;;;;;11.55;3.50;;;9.50;74.20;;;;;;4917488;29;20052;-77
2022/04/06 07:03:22;;;;;;;10.23;3.67;;;9.60;74.40;;;;;;4906645;29;20056;-76
2022/04/06 07:05:48;;;;;;;12.77;2.75;;;10.00;74.70;;;;;;4935165;29;20086;-77
2022/04/06 07:08:14;;;;;;;8.65;3.10;;;9.60;74.50;;;;;;4934311;29;20075;-75
2022/04/06 07:10:44;;;;;;;11.48;2.88;;;9.60;74.50;;;;;;4926087;29;20472;-76
2022/04/06 07:13:15;;;;;;;10.98;3.20;;;10.00;74.90;;;;;;4916705;29;20052;-76
2022/04/06 07:15:40;;;;;;;11.88;3.00;;;9.90;74.80;;;;;;4924554;29;20048;-76
2022/04/06 07:18:08;;;;;;;13.13;2.75;;;9.60;74.60;;;;;;4934173;29;20042;-76
2022/04/06 07:20:37;;;;;;;15.93;3.38;;;9.80;74.80;;;;;;4916644;29;20067;-76
2022/04/06 07:23:04;;;;;;;12.55;3.60;;;9.60;74.60;;;;;;4917079;29;20079;-76
2022/04/06 07:25:29;;;;;;;8.85;2.53;;;9.70;74.70;;;;;;4905952;29;20055;-76
2022/04/06 07:27:55;;;;;;;14.25;3.88;;;9.60;74.70;;;;;;4933245;29;20480;-75
2022/04/06 07:30:20;;;;;;;13.45;3.08;;;10.10;75.00;;;;;;4925660;29;20490;-76
2022/04/06 07:32:47;;;;;;;13.07;2.63;;;10.10;75.10;;;;;;4934920;29;20048;-77
2022/04/06 07:35:12;;;;;;;9.80;2.67;;;9.70;74.80;;;;;;4931211;29;20051;-77
2022/04/06 07:37:43;;;;;;;9.55;2.72;;;9.70;74.80;;;;;;4900035;29;20072;-77
2022/04/06 07:40:11;;;;;;;13.48;3.30;;;9.70;74.80;;;;;;4918190;29;20511;-76
2022/04/06 07:42:38;;;;;;;8.68;3.25;;;9.70;74.90;;;;;;4918823;29;20052;-77
2022/04/06 07:45:08;;;;;;;13.27;3.28;;;9.70;74.90;;;;;;4933269;29;20044;-76
2022/04/06 07:47:35;;;;;;;10.95;3.25;;;9.70;74.90;;;;;;4934661;29;20139;-76
2022/04/06 07:50:01;;;;;;;12.40;2.72;;;10.10;75.60;;;;;;4902889;29;20055;-76
2022/04/06 07:52:30;;;;;;;16.40;3.58;;;10.20;75.30;;;;;;4917892;29;20412;-77
2022/04/06 07:54:56;;;;;;;13.25;3.22;;;10.00;75.20;;;;;;4916850;29;20048;-77
2022/04/06 07:57:24;;;;;;;12.57;3.05;;;9.80;75.00;;;;;;4915215;29;20051;-77
2022/04/06 07:59:54;;;;;;;14.82;3.30;;;10.00;75.20;;;;;;4934340;29;20094;-77
2022/04/06 08:02:20;;;;;;;9.13;3.38;;;9.80;75.10;;;;;;4929217;29;20048;-77
2022/04/06 08:04:46;;;;;;;12.68;2.97;;;9.80;75.20;;;;;;4935244;29;20365;-76
2022/04/06 08:07:12;;;;;;;12.90;2.88;;;9.80;75.30;;;;;;4921612;29;20064;-78
2022/04/06 08:09:38;;;;;;;12.75;4.22;;;10.00;75.40;;;;;;4903377;29;20044;-77
2022/04/06 08:12:04;;;;;;;11.07;3.40;;;9.80;75.30;;;;;;4904122;29;20055;-76
2022/04/06 08:14:30;;;;;;;10.85;3.40;;;9.80;75.50;;;;;;4926273;29;20102;-77
2022/04/06 08:16:56;;;;;;;11.43;3.58;;;10.10;75.80;;;;;;4938683;29;20048;-78
2022/04/06 08:19:26;;;;;;;10.95;3.50;;;10.40;76.10;;;;;;4939213;29;20047;-76
2022/04/06 08:21:53;;;;;;;9.98;3.05;;;10.00;75.90;;;;;;4937030;29;20055;-76
2022/04/06 08:24:19;;;;;;;13.25;3.28;;;9.90;75.80;;;;;;4938532;29;20051;-76
2022/04/06 08:26:48;;;;;;;10.45;2.60;;;9.90;75.80;;;;;;4937751;29;20040;-76
2022/04/06 08:29:14;;;;;;;10.52;3.30;;;9.90;75.80;;;;;;4937695;29;20052;-76
2022/04/06 08:31:40;;;;;;;12.88;3.10;;;9.90;75.70;;;;;;4937308;29;20518;-76
2022/04/06 08:34:06;;;;;;;12.13;3.22;;;10.00;75.80;;;;;;4937394;29;20391;-76
2022/04/06 08:36:32;;;;;;;10.70;2.92;;;10.00;75.80;;;;;;4915465;29;20043;-77
2022/04/06 08:38:59;;;;;;;9.40;3.10;;;10.20;75.90;;;;;;4917481;29;20135;-76
2022/04/06 08:41:26;;;;;;;11.02;3.03;;;9.90;75.70;;;;;;4919221;29;20032;-76
2022/04/06 08:43:58;;;;;;;10.50;2.70;;;10.00;75.70;;;;;;4919998;29;20370;-77
2022/04/06 08:46:25;;;;;;;10.23;2.92;;;10.00;75.70;;;;;;4919702;29;20099;-77
2022/04/06 08:48:52;;;;;;;12.93;3.55;;;9.90;75.70;;;;;;4902585;29;20063;-77
2022/04/06 08:51:19;;;;;;;13.25;3.08;;;10.30;75.90;;;;;;4922979;29;20110;-76
2022/04/06 08:53:46;;;;;;;11.50;3.08;;;10.30;75.90;;;;;;4936799;29;20047;-78
2022/04/06 08:56:13;;;;;;;10.07;2.70;;;9.90;75.60;;;;;;4937269;29;20083;-76
2022/04/06 08:58:39;;;;;;;8.70;2.45;;;9.90;75.50;;;;;;4937367;29;20387;-77
2022/04/06 09:01:05;;;;;;;10.07;2.88;;;10.40;75.80;;;;;;4937460;29;20399;-77
2022/04/06 09:03:31;;;;;;;7.30;2.20;;;10.00;75.80;;;;;;4922609;29;20385;-77
2022/04/06 09:06:06;;;;;;;11.57;3.15;;;10.00;75.50;;;;;;4918217;29;20048;-77
2022/04/06 09:08:36;;;;;;;10.05;2.20;;;10.50;75.70;;;;;;4934153;29;20059;-77
2022/04/06 09:11:10;;;;;;;9.10;2.45;;;10.10;75.50;;;;;;4938455;29;20415;-77
2022/04/06 09:13:38;;;;;;;8.70;2.53;;;10.10;75.50;;;;;;4920862;29;20059;-76
2022/04/06 09:16:11;;;;;;;12.15;3.05;;;10.10;75.50;;;;;;4901836;29;20055;-77
2022/04/06 09:18:40;;;;;;;8.43;2.58;;;10.10;75.50;;;;;;4920276;29;20052;-77
2022/04/06 09:21:09;;;;;;;7.43;2.33;;;10.50;75.70;;;;;;4901596;29;20514;-77
2022/04/06 09:23:35;;;;;;;6.97;2.45;;;10.20;75.40;;;;;;4931935;29;20401;-77
2022/04/06 09:26:08;;;;;;;12.02;2.90;;;10.20;75.30;;;;;;4937892;29;20039;-78
2022/04/06 09:28:49;;;;;;;10.75;2.47;;;10.30;75.30;;;;;;4935630;29;20555;-78
2022/04/06 09:31:19;;;;;;;8.05;2.40;;;10.30;75.30;;;;;;4920604;29;20052;-77
2022/04/06 09:33:56;;;;;;;13.50;3.13;;;10.30;75.30;;;;;;4922189;29;20051;-78
2022/04/06 09:36:22;;;;;;;10.52;2.72;;;10.50;75.30;;;;;;4903713;29;20062;-77
2022/04/06 09:38:52;;;;;;;11.65;3.25;;;10.30;75.20;;;;;;4935370;29;20052;-78
2022/04/06 09:41:19;;;;;;;11.57;3.65;;;10.30;75.30;;;;;;4919226;29;20369;-78
2022/04/06 09:43:46;;;;;;;12.48;3.47;;;10.40;75.30;;;;;;4923731;29;20055;-78
2022/04/06 09:49:13;;;;;;;13.63;3.65;;;10.50;75.40;;;;;;4917318;29;20067;-78
2022/04/06 09:51:44;;;;;;;12.93;3.85;;;10.70;75.50;;;;;;4934022;29;20480;-78
2022/04/06 09:54:15;;;;;;;8.35;3.25;;;11.00;75.70;;;;;;4921478;29;20059;-79
2022/04/06 09:56:42;;;;;;;9.95;3.38;;;10.50;75.40;;;;;;4905516;29;20102;-78
2022/04/06 09:59:09;;;;;;;15.75;3.92;;;10.60;75.40;;;;;;4935263;29;20051;-78
2022/04/06 10:01:38;;;;;;;12.75;4.97;;;10.70;75.40;;;;;;4918209;29;20062;-78
2022/04/06 10:04:10;;;;;;;11.63;4.45;;;10.70;75.30;;;;;;4928215;29;20047;-78
2022/04/06 10:06:40;;;;;;;13.88;4.03;;;11.10;75.50;;;;;;4917057;29;20429;-78
2022/04/06 10:09:08;;;;;;;11.93;4.70;;;11.00;75.50;;;;;;4916967;29;20492;-77
2022/04/06 10:11:38;;;;;;;12.02;4.35;;;11.00;75.50;;;;;;4918009;29;20050;-78
2022/04/06 10:14:05;;;;;;;14.38;4.80;;;11.30;75.60;;;;;;4919852;29;20531;-78
2022/04/06 10:16:34;;;;;;;6.80;3.42;;;11.10;75.30;;;;;;4917994;29;20126;-78
2022/04/06 10:19:02;;;;;;;14.52;3.85;;;10.90;75.10;;;;;;4918330;29;20048;-77
2022/04/06 10:21:56;;;;;;;11.27;4.22;;;11.00;75.00;;;;;;4916348;29;20072;-78
2022/04/06 10:24:51;;;;;;;11.95;4.32;;;11.00;74.80;;;;;;4886722;29;20421;-78
2022/04/06 10:27:36;;;;;;;21.33;5.60;;;11.00;74.70;;;;;;4935682;29;20483;-77
2022/04/06 10:30:06;;;;;;;10.57;5.00;;;11.40;74.90;;;;;;4935826;29;20055;-77
2022/04/06 10:32:57;;;;;;;9.35;4.90;;;11.50;74.90;;;;;;4935972;29;20055;-77
2022/04/06 10:35:27;;;;;;;12.82;4.38;;;11.00;74.50;;;;;;4934968;29;20413;-78
2022/04/06 10:37:56;;;;;;;14.07;5.30;;;11.00;74.50;;;;;;4936784;29;20051;-77
2022/04/06 10:40:22;;;;;;;16.95;5.20;;;11.40;74.70;;;;;;4917809;29;20114;-77
2022/04/06 10:42:49;;;;;;;13.63;4.80;;;10.90;74.40;;;;;;4900776;29;20518;-78
2022/04/06 10:45:24;;;;;;;10.93;4.88;;;11.00;74.40;;;;;;4931593;29;20044;-77
2022/04/06 10:48:08;;;;;;;12.57;4.80;;;10.90;74.20;;;;;;4931995;29;20048;-77
2022/04/06 10:50:35;;;;;;;18.00;4.53;;;11.30;74.40;;;;;;4918943;29;20055;-78
2022/04/06 10:53:20;;;;;;;15.88;6.25;;;11.00;74.30;;;;;;4935178;29;20138;-78
2022/04/06 10:56:22;;;;;;;13.10;4.78;;;11.00;74.40;;;;;;4934672;29;20491;-78
2022/04/06 10:58:53;;;;;;;14.55;5.97;;;11.10;74.50;;;;;;4879060;29;20045;-80
2022/04/06 11:01:29;;;;;;;11.20;4.35;;;11.20;74.90;;;;;;4887970;29;20045;-79
2022/04/06 11:03:59;;;;;;;16.45;5.75;;;11.00;74.90;;;;;;4880329;29;20076;-80
2022/04/06 11:06:49;;;;;;;11.57;5.25;;;11.00;75.10;;;;;;4896187;29;20056;-79
2022/04/06 11:12:29;;;;;;;15.13;5.70;;;10.90;75.40;;;;;;4880237;29;20052;-80
2022/04/06 11:14:58;;;;;;;13.93;5.65;;;10.90;75.60;;;;;;4876568;29;20052;-80
2022/04/06 11:17:30;;;;;;;11.88;5.63;;;10.90;75.80;;;;;;4868605;29;20163;-80
2022/04/06 11:19:56;;;;;;;13.68;6.28;;;11.50;76.40;;;;;;4874055;29;20101;-79
2022/04/06 11:22:22;;;;;;;16.45;6.05;;;11.10;76.20;;;;;;4888300;29;20493;-78
2022/04/06 11:24:48;;;;;;;13.38;6.10;;;11.00;76.20;;;;;;4871760;29;20052;-80
2022/04/06 11:27:30;;;;;;;14.05;5.93;;;11.00;76.20;;;;;;4879068;29;20079;-77
2022/04/06 11:30:00;;;;;;;13.15;6.07;;;10.80;76.10;;;;;;4892196;29;20059;-77
2022/04/06 11:32:26;;;;;;;13.65;5.45;;;11.40;76.40;;;;;;4890510;29;20103;-78
2022/04/06 11:35:00;;;;;;;13.13;6.28;;;11.20;76.20;;;;;;4919588;29;20724;-78
2022/04/06 11:37:25;;;;;;;13.18;6.60;;;11.50;76.30;;;;;;4931484;29;20075;-77
2022/04/06 11:39:57;;;;;;;14.93;7.63;;;11.10;76.00;;;;;;4930867;29;20083;-78
2022/04/06 11:42:23;;;;;;;11.93;6.78;;;11.00;76.00;;;;;;4922498;29;20123;-78
2022/04/06 11:44:49;;;;;;;14.23;6.70;;;11.10;76.00;;;;;;4924478;29;20059;-76
2022/04/06 11:47:14;;;;;;;16.40;8.05;;;11.10;75.90;;;;;;4898956;29;20369;-76
2022/04/06 11:49:40;;;;;;;18.52;8.65;;;11.40;76.00;;;;;;4919322;29;20094;-77
2022/04/06 11:52:07;;;;;;;16.60;7.93;;;11.50;76.10;;;;;;4922872;29;20484;-76
2022/04/06 11:54:32;;;;;;;16.00;7.63;;;11.10;75.90;;;;;;4926152;29;20118;-76
2022/04/06 11:56:58;;;;;;;14.63;8.02;;;11.20;76.10;;;;;;4912864;29;20502;-76
2022/04/06 11:59:25;;;;;;;19.40;9.43;;;11.20;76.30;;;;;;4929875;29;20070;-76
2022/04/06 12:01:52;;;;;;;15.27;8.10;;;11.30;76.50;;;;;;4933268;29;20048;-76
2022/04/06 12:04:24;;;;;;;19.98;8.40;;;11.30;76.50;;;;;;4931844;29;20193;-77
2022/04/06 12:06:54;;;;;;;17.17;8.82;;;11.30;76.40;;;;;;4917758;29;20502;-77
2022/04/06 12:09:21;;;;;;;19.25;7.63;;;11.40;76.50;;;;;;4931589;29;20123;-76
2022/04/06 12:11:51;;;;;;;15.82;7.20;;;11.40;76.80;;;;;;4928495;29;20044;-78
2022/04/06 12:14:17;;;;;;;16.85;7.43;;;11.90;76.80;;;;;;4917465;29;20052;-77
2022/04/06 12:16:43;;;;;;;12.32;6.72;;;11.70;76.50;;;;;;4928745;29;20079;-79
2022/04/06 12:19:13;;;;;;;11.98;6.28;;;11.60;76.10;;;;;;4899156;29;20517;-78
2022/04/06 12:21:44;;;;;;;14.50;6.50;;;11.90;76.00;;;;;;4910660;29;20048;-77
2022/04/06 12:24:11;;;;;;;12.77;6.15;;;11.70;75.80;;;;;;4919696;29;20044;-77
2022/04/06 12:26:45;;;;;;;16.55;6.60;;;11.70;75.50;;;;;;4909099;29;20040;-76
2022/04/06 12:29:13;;;;;;;;;;;11.70;75.30;;;;;;4919296;29;20062;-78
2022/04/06 12:31:41;;;;;;;11.43;5.55;;;11.70;75.10;;;;;;4930631;29;19922;-79
2022/04/06 12:34:08;;;;;;;11.48;5.35;;;11.80;75.30;;;;;;4919578;29;20480;-80
2022/04/06 12:36:34;;;;;;;18.00;5.95;;;11.70;75.10;;;;;;4927144;29;20055;-77
2022/04/06 12:39:10;;;;;;;15.63;6.18;;;11.80;75.10;;;;;;4919601;29;20062;-78
2022/04/06 12:42:02;;;;;;;11.52;5.07;;;11.80;75.10;;;;;;4912892;29;20092;-78
2022/04/06 12:44:32;;;;;;;14.18;5.47;;;11.80;74.90;;;;;;4923570;29;20056;-77
2022/04/06 12:46:58;;;;;;;9.10;4.68;;;11.80;75.00;;;;;;4931012;29;20032;-78
2022/04/06 12:49:35;;;;;;;12.95;5.25;;;11.90;75.00;;;;;;4935502;29;20047;-78
2022/04/06 12:52:14;;;;;;;12.75;4.75;;;11.90;74.90;;;;;;4916996;29;20179;-77
2022/04/06 12:54:44;;;;;;;15.05;4.65;;;11.90;74.80;;;;;;4928474;29;20159;-77
2022/04/06 12:57:25;;;;;;;9.25;3.95;;;11.90;74.60;;;;;;4926099;29;20048;-76